sensor_id;sensor_type;location;lat;lon;timestamp;P1;durP1;ratioP1;P2;durP2;ratioP2
64500;SDS011;50874;24.150;-110.320;2022-08-19T00:01:29;12.23;;;5.40;;
64500;SDS011;50874;24.150;-110.320;2022-08-19T00:03:59;13.05;;;5.07;;
64500;SDS011;50874;24.150;-110.320;2022-08-19T00:06:29;9.38;;;5.32;;
64500;SDS011;50874;24.150;-110.320;2022-08-19T00:08:56;17.88;;;5.78;;
64500;SDS011;50874;24.150;-110.320;2022-08-19T00:11:25;9.38;;;4.93;;
64500;SDS011;50874;24.150;-110.320;2022-08-19T00:13:53;10.43;;;5.13;;
64500;SDS011;50874;24.150;-110.320;2022-08-19T00:16:22;10.23;;;4.82;;
64500;SDS011;50874;24.150;-110.320;2022-08-19T00:18:49;10.65;;;5.43;;
64500;SDS011;50874;24.150;-110.320;2022-08-19T00:21:16;9.57;;;4.78;;
64500;SDS011;50874;24.150;-110.320;2022-08-19T00:23:43;10.90;;;5.10;;
64500;SDS011;50874;24.150;-110.320;2022-08-19T00:26:10;11.00;;;5.78;;
64500;SDS011;50874;24.150;-110.320;2022-08-19T00:28:37;9.02;;;4.53;;
64500;SDS011;50874;24.150;-110.320;2022-08-19T00:31:04;10.13;;;5.28;;
64500;SDS011;50874;24.150;-110.320;2022-08-19T00:33:31;11.45;;;5.32;;
64500;SDS011;50874;24.150;-110.320;2022-08-19T00:35:59;9.15;;;4.38;;
64500;SDS011;50874;24.150;-110.320;2022-08-19T00:38:27;9.38;;;4.80;;
64500;SDS011;50874;24.150;-110.320;2022-08-19T00:40:54;14.32;;;5.15;;
64500;SDS011;50874;24.150;-110.320;2022-08-19T00:43:21;12.45;;;4.18;;
64500;SDS011;50874;24.150;-110.320;2022-08-19T00:45:50;9.95;;;4.13;;
64500;SDS011;50874;24.150;-110.320;2022-08-19T00:48:17;10.68;;;4.50;;
64500;SDS011;50874;24.150;-110.320;2022-08-19T00:50:46;9.07;;;4.22;;
64500;SDS011;50874;24.150;-110.320;2022-08-19T00:53:16;13.13;;;4.70;;
64500;SDS011;50874;24.150;-110.320;2022-08-19T00:55:48;17.25;;;5.20;;
64500;SDS011;50874;24.150;-110.320;2022-08-19T00:58:17;9.85;;;5.00;;
64500;SDS011;50874;24.150;-110.320;2022-08-19T01:00:46;6.70;;;4.22;;
64500;SDS011;50874;24.150;-110.320;2022-08-19T01:03:15;9.95;;;5.03;;
64500;SDS011;50874;24.150;-110.320;2022-08-19T01:05:43;8.73;;;4.75;;
64500;SDS011;50874;24.150;-110.320;2022-08-19T01:08:11;5.47;;;3.83;;
64500;SDS011;50874;24.150;-110.320;2022-08-19T01:10:42;10.82;;;4.32;;
64500;SDS011;50874;24.150;-110.320;2022-08-19T01:15:45;9.93;;;4.22;;
64500;SDS011;50874;24.150;-110.320;2022-08-19T01:18:22;9.02;;;4.50;;
64500;SDS011;50874;24.150;-110.320;2022-08-19T01:20:50;11.48;;;4.82;;
64500;SDS011;50874;24.150;-110.320;2022-08-19T01:23:18;9.90;;;5.00;;
64500;SDS011;50874;24.150;-110.320;2022-08-19T01:25:46;9.20;;;4.60;;
64500;SDS011;50874;24.150;-110.320;2022-08-19T01:28:16;11.27;;;3.70;;
64500;SDS011;50874;24.150;-110.320;2022-08-19T01:30:47;16.05;;;4.60;;
64500;SDS011;50874;24.150;-110.320;2022-08-19T01:33:14;7.43;;;3.75;;
64500;SDS011;50874;24.150;-110.320;2022-08-19T01:35:41;7.50;;;4.15;;
64500;SDS011;50874;24.150;-110.320;2022-08-19T01:38:09;8.85;;;3.85;;
64500;SDS011;50874;24.150;-110.320;2022-08-19T01:40:44;13.13;;;4.28;;
64500;SDS011;50874;24.150;-110.320;2022-08-19T01:43:11;10.55;;;4.07;;
64500;SDS011;50874;24.150;-110.320;2022-08-19T01:45:37;9.20;;;4.43;;
64500;SDS011;50874;24.150;-110.320;2022-08-19T01:48:05;8.10;;;4.22;;
64500;SDS011;50874;24.150;-110.320;2022-08-19T01:50:33;5.78;;;3.55;;
64500;SDS011;50874;24.150;-110.320;2022-08-19T01:53:00;11.98;;;4.65;;
64500;SDS011;50874;24.150;-110.320;2022-08-19T01:55:29;8.98;;;4.40;;
64500;SDS011;50874;24.150;-110.320;2022-08-19T01:57:56;7.78;;;4.47;;
64500;SDS011;50874;24.150;-110.320;2022-08-19T02:00:28;9.32;;;4.30;;
64500;SDS011;50874;24.150;-110.320;2022-08-19T02:02:56;11.80;;;4.63;;
64500;SDS011;50874;24.150;-110.320;2022-08-19T02:05:23;8.80;;;4.05;;
64500;SDS011;50874;24.150;-110.320;2022-08-19T02:07:50;15.25;;;4.10;;
64500;SDS011;50874;24.150;-110.320;2022-08-19T02:10:18;9.27;;;4.40;;
64500;SDS011;50874;24.150;-110.320;2022-08-19T02:12:47;11.52;;;4.10;;
64500;SDS011;50874;24.150;-110.320;2022-08-19T02:15:18;13.13;;;4.47;;
64500;SDS011;50874;24.150;-110.320;2022-08-19T02:17:46;7.43;;;3.83;;
64500;SDS011;50874;24.150;-110.320;2022-08-19T02:20:13;8.27;;;4.38;;
64500;SDS011;50874;24.150;-110.320;2022-08-19T02:22:40;9.65;;;4.38;;
64500;SDS011;50874;24.150;-110.320;2022-08-19T02:25:08;8.20;;;3.80;;
64500;SDS011;50874;24.150;-110.320;2022-08-19T02:27:36;9.25;;;4.50;;
64500;SDS011;50874;24.150;-110.320;2022-08-19T02:30:04;10.32;;;4.15;;
64500;SDS011;50874;24.150;-110.320;2022-08-19T02:32:32;10.52;;;4.47;;
64500;SDS011;50874;24.150;-110.320;2022-08-19T02:34:59;8.15;;;4.28;;
64500;SDS011;50874;24.150;-110.320;2022-08-19T02:37:25;8.48;;;4.25;;
64500;SDS011;50874;24.150;-110.320;2022-08-19T02:40:10;6.35;;;4.22;;
64500;SDS011;50874;24.150;-110.320;2022-08-19T02:42:37;11.20;;;4.10;;
64500;SDS011;50874;24.150;-110.320;2022-08-19T02:45:06;10.65;;;4.50;;
64500;SDS011;50874;24.150;-110.320;2022-08-19T02:47:33;9.88;;;3.92;;
64500;SDS011;50874;24.150;-110.320;2022-08-19T02:50:03;11.52;;;4.32;;
64500;SDS011;50874;24.150;-110.320;2022-08-19T02:52:31;10.98;;;4.38;;
64500;SDS011;50874;24.150;-110.320;2022-08-19T02:54:58;9.05;;;4.13;;
64500;SDS011;50874;24.150;-110.320;2022-08-19T02:57:25;10.70;;;4.32;;
64500;SDS011;50874;24.150;-110.320;2022-08-19T02:59:52;10.73;;;4.15;;
64500;SDS011;50874;24.150;-110.320;2022-08-19T03:02:18;13.65;;;4.95;;
64500;SDS011;50874;24.150;-110.320;2022-08-19T03:04:45;13.13;;;4.90;;
64500;SDS011;50874;24.150;-110.320;2022-08-19T03:07:15;9.38;;;4.32;;
64500;SDS011;50874;24.150;-110.320;2022-08-19T03:09:42;8.52;;;4.20;;
64500;SDS011;50874;24.150;-110.320;2022-08-19T03:12:09;12.70;;;4.72;;
64500;SDS011;50874;24.150;-110.320;2022-08-19T03:14:36;11.57;;;4.50;;
64500;SDS011;50874;24.150;-110.320;2022-08-19T03:17:03;12.20;;;4.50;;
64500;SDS011;50874;24.150;-110.320;2022-08-19T03:19:30;11.45;;;5.10;;
64500;SDS011;50874;24.150;-110.320;2022-08-19T03:21:57;12.50;;;4.32;;
64500;SDS011;50874;24.150;-110.320;2022-08-19T03:24:24;13.48;;;4.38;;
64500;SDS011;50874;24.150;-110.320;2022-08-19T03:26:51;11.38;;;4.55;;
64500;SDS011;50874;24.150;-110.320;2022-08-19T03:29:23;12.40;;;4.20;;
64500;SDS011;50874;24.150;-110.320;2022-08-19T03:31:53;8.63;;;4.20;;
64500;SDS011;50874;24.150;-110.320;2022-08-19T03:34:24;9.38;;;4.40;;
64500;SDS011;50874;24.150;-110.320;2022-08-19T03:36:53;8.35;;;4.70;;
64500;SDS011;50874;24.150;-110.320;2022-08-19T03:39:21;9.02;;;4.32;;
64500;SDS011;50874;24.150;-110.320;2022-08-19T03:41:49;15.07;;;4.90;;
64500;SDS011;50874;24.150;-110.320;2022-08-19T03:44:19;14.15;;;4.53;;
64500;SDS011;50874;24.150;-110.320;2022-08-19T03:46:51;14.68;;;4.68;;
64500;SDS011;50874;24.150;-110.320;2022-08-19T03:49:20;9.65;;;4.50;;
64500;SDS011;50874;24.150;-110.320;2022-08-19T03:51:49;13.30;;;4.97;;
64500;SDS011;50874;24.150;-110.320;2022-08-19T03:54:17;12.07;;;4.50;;
64500;SDS011;50874;24.150;-110.320;2022-08-19T03:56:46;12.55;;;5.05;;
64500;SDS011;50874;24.150;-110.320;2022-08-19T03:59:19;12.30;;;4.68;;
64500;SDS011;50874;24.150;-110.320;2022-08-19T04:01:50;12.02;;;4.68;;
64500;SDS011;50874;24.150;-110.320;2022-08-19T04:04:18;13.13;;;5.13;;
64500;SDS011;50874;24.150;-110.320;2022-08-19T04:06:44;15.15;;;4.93;;
64500;SDS011;50874;24.150;-110.320;2022-08-19T04:09:12;10.10;;;4.68;;
64500;SDS011;50874;24.150;-110.320;2022-08-19T04:11:40;12.43;;;4.70;;
64500;SDS011;50874;24.150;-110.320;2022-08-19T04:14:13;7.00;;;4.30;;
64500;SDS011;50874;24.150;-110.320;2022-08-19T04:16:43;10.93;;;4.15;;
64500;SDS011;50874;24.150;-110.320;2022-08-19T04:19:12;8.40;;;4.20;;
64500;SDS011;50874;24.150;-110.320;2022-08-19T04:21:39;13.05;;;4.72;;
64500;SDS011;50874;24.150;-110.320;2022-08-19T04:24:08;11.30;;;4.38;;
64500;SDS011;50874;24.150;-110.320;2022-08-19T04:26:35;13.10;;;4.72;;
64500;SDS011;50874;24.150;-110.320;2022-08-19T04:29:13;9.13;;;4.05;;
64500;SDS011;50874;24.150;-110.320;2022-08-19T04:31:43;10.30;;;4.78;;
64500;SDS011;50874;24.150;-110.320;2022-08-19T04:34:11;13.90;;;4.30;;
64500;SDS011;50874;24.150;-110.320;2022-08-19T04:36:40;11.75;;;4.82;;
64500;SDS011;50874;24.150;-110.320;2022-08-19T04:39:16;9.70;;;4.30;;
64500;SDS011;50874;24.150;-110.320;2022-08-19T04:41:45;5.97;;;3.78;;
64500;SDS011;50874;24.150;-110.320;2022-08-19T04:44:30;9.70;;;4.00;;
64500;SDS011;50874;24.150;-110.320;2022-08-19T04:46:58;10.98;;;4.15;;
64500;SDS011;50874;24.150;-110.320;2022-08-19T04:49:25;10.38;;;4.65;;
64500;SDS011;50874;24.150;-110.320;2022-08-19T04:51:52;7.63;;;3.63;;
64500;SDS011;50874;24.150;-110.320;2022-08-19T04:54:19;8.68;;;3.83;;
64500;SDS011;50874;24.150;-110.320;2022-08-19T04:56:48;9.35;;;4.15;;
64500;SDS011;50874;24.150;-110.320;2022-08-19T04:59:15;12.07;;;4.30;;
64500;SDS011;50874;24.150;-110.320;2022-08-19T05:01:43;10.35;;;4.22;;
64500;SDS011;50874;24.150;-110.320;2022-08-19T05:04:15;9.10;;;4.15;;
64500;SDS011;50874;24.150;-110.320;2022-08-19T05:06:49;11.35;;;3.83;;
64500;SDS011;50874;24.150;-110.320;2022-08-19T05:09:17;10.63;;;4.25;;
64500;SDS011;50874;24.150;-110.320;2022-08-19T05:11:44;8.93;;;3.63;;
64500;SDS011;50874;24.150;-110.320;2022-08-19T05:14:11;10.73;;;4.07;;
64500;SDS011;50874;24.150;-110.320;2022-08-19T05:16:38;7.82;;;3.63;;
64500;SDS011;50874;24.150;-110.320;2022-08-19T05:19:05;12.02;;;4.38;;
64500;SDS011;50874;24.150;-110.320;2022-08-19T05:21:50;8.50;;;3.90;;
64500;SDS011;50874;24.150;-110.320;2022-08-19T05:24:35;10.52;;;3.90;;
64500;SDS011;50874;24.150;-110.320;2022-08-19T05:27:02;8.48;;;4.07;;
64500;SDS011;50874;24.150;-110.320;2022-08-19T05:29:31;10.40;;;4.00;;
64500;SDS011;50874;24.150;-110.320;2022-08-19T05:32:00;11.00;;;4.35;;
64500;SDS011;50874;24.150;-110.320;2022-08-19T05:34:30;11.38;;;4.03;;
64500;SDS011;50874;24.150;-110.320;2022-08-19T05:36:58;9.80;;;3.83;;
64500;SDS011;50874;24.150;-110.320;2022-08-19T05:39:28;8.45;;;3.80;;
64500;SDS011;50874;24.150;-110.320;2022-08-19T05:41:57;9.85;;;4.18;;
64500;SDS011;50874;24.150;-110.320;2022-08-19T05:44:27;9.85;;;4.03;;
64500;SDS011;50874;24.150;-110.320;2022-08-19T05:46:58;18.23;;;3.80;;
64500;SDS011;50874;24.150;-110.320;2022-08-19T05:49:27;9.18;;;4.65;;
64500;SDS011;50874;24.150;-110.320;2022-08-19T05:51:54;11.55;;;4.18;;
64500;SDS011;50874;24.150;-110.320;2022-08-19T05:54:22;11.27;;;4.35;;
64500;SDS011;50874;24.150;-110.320;2022-08-19T05:56:49;15.93;;;5.35;;
64500;SDS011;50874;24.150;-110.320;2022-08-19T05:59:17;11.00;;;4.13;;
64500;SDS011;50874;24.150;-110.320;2022-08-19T06:01:47;11.40;;;4.70;;
64500;SDS011;50874;24.150;-110.320;2022-08-19T06:04:19;14.07;;;4.68;;
64500;SDS011;50874;24.150;-110.320;2022-08-19T06:06:47;11.75;;;4.35;;
64500;SDS011;50874;24.150;-110.320;2022-08-19T06:09:17;9.65;;;4.13;;
64500;SDS011;50874;24.150;-110.320;2022-08-19T06:11:48;10.32;;;4.60;;
64500;SDS011;50874;24.150;-110.320;2022-08-19T06:14:22;10.23;;;4.65;;
64500;SDS011;50874;24.150;-110.320;2022-08-19T06:16:50;8.05;;;3.53;;
64500;SDS011;50874;24.150;-110.320;2022-08-19T06:19:18;12.82;;;5.45;;
64500;SDS011;50874;24.150;-110.320;2022-08-19T06:21:48;16.73;;;4.95;;
64500;SDS011;50874;24.150;-110.320;2022-08-19T06:24:17;10.18;;;4.10;;
64500;SDS011;50874;24.150;-110.320;2022-08-19T06:26:46;12.55;;;4.65;;
64500;SDS011;50874;24.150;-110.320;2022-08-19T06:29:14;9.55;;;3.92;;
64500;SDS011;50874;24.150;-110.320;2022-08-19T06:31:43;12.38;;;4.63;;
64500;SDS011;50874;24.150;-110.320;2022-08-19T06:34:12;10.27;;;4.20;;
64500;SDS011;50874;24.150;-110.320;2022-08-19T06:36:40;11.35;;;4.35;;
64500;SDS011;50874;24.150;-110.320;2022-08-19T06:39:12;9.32;;;4.07;;
64500;SDS011;50874;24.150;-110.320;2022-08-19T06:41:42;12.88;;;4.45;;
64500;SDS011;50874;24.150;-110.320;2022-08-19T06:44:10;10.52;;;4.38;;
64500;SDS011;50874;24.150;-110.320;2022-08-19T06:46:37;12.20;;;4.10;;
64500;SDS011;50874;24.150;-110.320;2022-08-19T06:49:05;13.30;;;4.22;;
64500;SDS011;50874;24.150;-110.320;2022-08-19T06:51:35;9.80;;;4.22;;
64500;SDS011;50874;24.150;-110.320;2022-08-19T06:54:02;10.05;;;4.00;;
64500;SDS011;50874;24.150;-110.320;2022-08-19T06:56:29;9.68;;;3.10;;
64500;SDS011;50874;24.150;-110.320;2022-08-19T06:59:03;11.23;;;4.60;;
64500;SDS011;50874;24.150;-110.320;2022-08-19T07:01:34;8.65;;;4.18;;
64500;SDS011;50874;24.150;-110.320;2022-08-19T07:04:05;11.20;;;4.43;;
64500;SDS011;50874;24.150;-110.320;2022-08-19T07:06:34;8.27;;;4.45;;
64500;SDS011;50874;24.150;-110.320;2022-08-19T07:09:03;11.73;;;4.22;;
64500;SDS011;50874;24.150;-110.320;2022-08-19T07:11:30;12.75;;;4.78;;
64500;SDS011;50874;24.150;-110.320;2022-08-19T07:13:58;18.08;;;4.53;;
64500;SDS011;50874;24.150;-110.320;2022-08-19T07:16:25;10.68;;;4.00;;
64500;SDS011;50874;24.150;-110.320;2022-08-19T07:18:53;7.65;;;3.78;;
64500;SDS011;50874;24.150;-110.320;2022-08-19T07:21:22;10.90;;;4.38;;
64500;SDS011;50874;24.150;-110.320;2022-08-19T07:23:54;12.55;;;4.72;;
64500;SDS011;50874;24.150;-110.320;2022-08-19T07:26:26;10.88;;;4.28;;
64500;SDS011;50874;24.150;-110.320;2022-08-19T07:28:55;8.63;;;4.32;;
64500;SDS011;50874;24.150;-110.320;2022-08-19T07:31:27;9.63;;;4.13;;
64500;SDS011;50874;24.150;-110.320;2022-08-19T07:33:54;13.45;;;4.78;;
64500;SDS011;50874;24.150;-110.320;2022-08-19T07:36:23;13.82;;;5.13;;
64500;SDS011;50874;24.150;-110.320;2022-08-19T07:38:55;10.13;;;4.55;;
64500;SDS011;50874;24.150;-110.320;2022-08-19T07:41:23;11.45;;;4.88;;
64500;SDS011;50874;24.150;-110.320;2022-08-19T07:43:54;9.07;;;4.28;;
64500;SDS011;50874;24.150;-110.320;2022-08-19T07:46:20;12.52;;;4.38;;
64500;SDS011;50874;24.150;-110.320;2022-08-19T07:48:48;8.45;;;4.90;;
64500;SDS011;50874;24.150;-110.320;2022-08-19T07:51:17;9.35;;;4.38;;
64500;SDS011;50874;24.150;-110.320;2022-08-19T07:53:47;9.40;;;4.57;;
64500;SDS011;50874;24.150;-110.320;2022-08-19T07:56:15;11.73;;;4.50;;
64500;SDS011;50874;24.150;-110.320;2022-08-19T07:58:43;13.52;;;4.32;;
64500;SDS011;50874;24.150;-110.320;2022-08-19T08:01:12;16.77;;;5.03;;
64500;SDS011;50874;24.150;-110.320;2022-08-19T08:03:41;7.93;;;4.20;;
64500;SDS011;50874;24.150;-110.320;2022-08-19T08:06:25;11.95;;;5.13;;
64500;SDS011;50874;24.150;-110.320;2022-08-19T08:09:11;7.90;;;4.47;;
64500;SDS011;50874;24.150;-110.320;2022-08-19T08:11:58;11.85;;;5.13;;
64500;SDS011;50874;24.150;-110.320;2022-08-19T08:14:39;13.70;;;5.20;;
64500;SDS011;50874;24.150;-110.320;2022-08-19T08:17:09;8.70;;;4.53;;
64500;SDS011;50874;24.150;-110.320;2022-08-19T08:19:36;8.18;;;5.10;;
64500;SDS011;50874;24.150;-110.320;2022-08-19T08:22:06;15.32;;;5.55;;
64500;SDS011;50874;24.150;-110.320;2022-08-19T08:24:54;12.02;;;5.00;;
64500;SDS011;50874;24.150;-110.320;2022-08-19T08:27:23;14.25;;;5.85;;
64500;SDS011;50874;24.150;-110.320;2022-08-19T08:29:51;8.05;;;4.72;;
64500;SDS011;50874;24.150;-110.320;2022-08-19T08:32:17;17.70;;;5.30;;
64500;SDS011;50874;24.150;-110.320;2022-08-19T08:34:43;12.57;;;5.00;;
64500;SDS011;50874;24.150;-110.320;2022-08-19T08:37:10;15.13;;;4.97;;
64500;SDS011;50874;24.150;-110.320;2022-08-19T08:39:36;14.57;;;5.60;;
64500;SDS011;50874;24.150;-110.320;2022-08-19T08:47:14;10.45;;;4.32;;
64500;SDS011;50874;24.150;-110.320;2022-08-19T08:49:48;16.58;;;5.28;;
64500;SDS011;50874;24.150;-110.320;2022-08-19T08:52:25;9.43;;;4.70;;
64500;SDS011;50874;24.150;-110.320;2022-08-19T08:54:55;12.65;;;4.97;;
64500;SDS011;50874;24.150;-110.320;2022-08-19T09:00:07;10.93;;;5.13;;
64500;SDS011;50874;24.150;-110.320;2022-08-19T09:02:37;9.88;;;4.88;;
64500;SDS011;50874;24.150;-110.320;2022-08-19T09:05:04;15.70;;;5.70;;
64500;SDS011;50874;24.150;-110.320;2022-08-19T09:10:07;12.45;;;5.55;;
64500;SDS011;50874;24.150;-110.320;2022-08-19T09:13:04;13.75;;;5.75;;
64500;SDS011;50874;24.150;-110.320;2022-08-19T09:15:42;17.02;;;5.38;;
64500;SDS011;50874;24.150;-110.320;2022-08-19T09:18:37;14.90;;;6.32;;
64500;SDS011;50874;24.150;-110.320;2022-08-19T09:21:09;14.53;;;5.27;;
64500;SDS011;50874;24.150;-110.320;2022-08-19T09:23:36;12.45;;;6.32;;
64500;SDS011;50874;24.150;-110.320;2022-08-19T09:26:10;16.73;;;5.82;;
64500;SDS011;50874;24.150;-110.320;2022-08-19T09:28:39;14.20;;;5.57;;
64500;SDS011;50874;24.150;-110.320;2022-08-19T09:31:11;11.23;;;5.25;;
64500;SDS011;50874;24.150;-110.320;2022-08-19T09:33:39;11.20;;;5.75;;
64500;SDS011;50874;24.150;-110.320;2022-08-19T09:36:10;16.90;;;6.03;;
64500;SDS011;50874;24.150;-110.320;2022-08-19T09:38:39;15.30;;;5.20;;
64500;SDS011;50874;24.150;-110.320;2022-08-19T09:41:07;10.68;;;5.35;;
64500;SDS011;50874;24.150;-110.320;2022-08-19T09:43:42;14.77;;;5.78;;
64500;SDS011;50874;24.150;-110.320;2022-08-19T09:46:11;17.08;;;5.32;;
64500;SDS011;50874;24.150;-110.320;2022-08-19T09:48:39;16.30;;;5.78;;
64500;SDS011;50874;24.150;-110.320;2022-08-19T09:51:10;11.50;;;5.32;;
64500;SDS011;50874;24.150;-110.320;2022-08-19T09:53:41;16.92;;;5.55;;
64500;SDS011;50874;24.150;-110.320;2022-08-19T09:56:13;14.50;;;5.50;;
64500;SDS011;50874;24.150;-110.320;2022-08-19T09:58:39;14.32;;;5.80;;
64500;SDS011;50874;24.150;-110.320;2022-08-19T10:01:06;12.10;;;5.60;;
64500;SDS011;50874;24.150;-110.320;2022-08-19T10:03:34;16.33;;;5.90;;
64500;SDS011;50874;24.150;-110.320;2022-08-19T10:06:03;15.27;;;5.25;;
64500;SDS011;50874;24.150;-110.320;2022-08-19T10:08:32;14.25;;;6.03;;
64500;SDS011;50874;24.150;-110.320;2022-08-19T10:11:01;17.33;;;5.95;;
64500;SDS011;50874;24.150;-110.320;2022-08-19T10:13:29;12.98;;;5.72;;
64500;SDS011;50874;24.150;-110.320;2022-08-19T10:16:07;18.48;;;5.32;;
64500;SDS011;50874;24.150;-110.320;2022-08-19T10:18:38;15.35;;;5.95;;
64500;SDS011;50874;24.150;-110.320;2022-08-19T10:21:13;16.58;;;6.07;;
64500;SDS011;50874;24.150;-110.320;2022-08-19T10:23:43;13.65;;;6.07;;
64500;SDS011;50874;24.150;-110.320;2022-08-19T10:26:14;15.48;;;5.97;;
64500;SDS011;50874;24.150;-110.320;2022-08-19T10:28:43;21.52;;;6.72;;
64500;SDS011;50874;24.150;-110.320;2022-08-19T10:31:10;15.32;;;6.07;;
64500;SDS011;50874;24.150;-110.320;2022-08-19T10:33:46;17.38;;;5.60;;
64500;SDS011;50874;24.150;-110.320;2022-08-19T10:36:17;22.02;;;6.10;;
64500;SDS011;50874;24.150;-110.320;2022-08-19T10:38:49;19.25;;;6.72;;
64500;SDS011;50874;24.150;-110.320;2022-08-19T10:41:18;20.45;;;7.03;;
64500;SDS011;50874;24.150;-110.320;2022-08-19T10:43:52;15.48;;;6.43;;
64500;SDS011;50874;24.150;-110.320;2022-08-19T10:46:21;14.65;;;5.65;;
64500;SDS011;50874;24.150;-110.320;2022-08-19T10:48:49;11.40;;;4.80;;
64500;SDS011;50874;24.150;-110.320;2022-08-19T10:51:16;15.75;;;6.03;;
64500;SDS011;50874;24.150;-110.320;2022-08-19T10:54:01;15.48;;;6.65;;
64500;SDS011;50874;24.150;-110.320;2022-08-19T10:56:29;17.05;;;6.80;;
64500;SDS011;50874;24.150;-110.320;2022-08-19T10:59:14;23.20;;;6.90;;
64500;SDS011;50874;24.150;-110.320;2022-08-19T11:01:43;18.65;;;5.97;;
64500;SDS011;50874;24.150;-110.320;2022-08-19T11:04:11;19.35;;;6.35;;
64500;SDS011;50874;24.150;-110.320;2022-08-19T11:06:41;14.73;;;6.10;;
64500;SDS011;50874;24.150;-110.320;2022-08-19T11:09:16;17.50;;;6.50;;
64500;SDS011;50874;24.150;-110.320;2022-08-19T11:11:44;26.80;;;5.80;;
64500;SDS011;50874;24.150;-110.320;2022-08-19T11:14:14;13.80;;;6.28;;
64500;SDS011;50874;24.150;-110.320;2022-08-19T11:16:45;16.73;;;6.07;;
64500;SDS011;50874;24.150;-110.320;2022-08-19T11:19:11;14.35;;;5.88;;
64500;SDS011;50874;24.150;-110.320;2022-08-19T11:21:41;16.65;;;6.13;;
64500;SDS011;50874;24.150;-110.320;2022-08-19T11:24:13;14.90;;;6.20;;
64500;SDS011;50874;24.150;-110.320;2022-08-19T11:26:42;18.70;;;6.60;;
64500;SDS011;50874;24.150;-110.320;2022-08-19T11:29:10;19.92;;;6.63;;
64500;SDS011;50874;24.150;-110.320;2022-08-19T11:31:39;19.02;;;6.60;;
64500;SDS011;50874;24.150;-110.320;2022-08-19T11:34:09;16.17;;;6.35;;
64500;SDS011;50874;24.150;-110.320;2022-08-19T11:36:39;15.45;;;5.72;;
64500;SDS011;50874;24.150;-110.320;2022-08-19T11:39:08;16.77;;;6.75;;
64500;SDS011;50874;24.150;-110.320;2022-08-19T11:41:36;14.82;;;5.78;;
64500;SDS011;50874;24.150;-110.320;2022-08-19T11:44:02;12.18;;;6.07;;
64500;SDS011;50874;24.150;-110.320;2022-08-19T11:46:30;20.27;;;6.32;;
64500;SDS011;50874;24.150;-110.320;2022-08-19T11:48:57;18.65;;;5.80;;
64500;SDS011;50874;24.150;-110.320;2022-08-19T11:51:26;22.75;;;6.13;;
64500;SDS011;50874;24.150;-110.320;2022-08-19T11:53:54;18.17;;;6.55;;
64500;SDS011;50874;24.150;-110.320;2022-08-19T11:56:22;15.02;;;5.32;;
64500;SDS011;50874;24.150;-110.320;2022-08-19T11:58:49;12.50;;;5.25;;
64500;SDS011;50874;24.150;-110.320;2022-08-19T12:01:17;18.25;;;6.50;;
64500;SDS011;50874;24.150;-110.320;2022-08-19T12:03:46;16.75;;;6.28;;
64500;SDS011;50874;24.150;-110.320;2022-08-19T12:06:15;13.65;;;6.18;;
64500;SDS011;50874;24.150;-110.320;2022-08-19T12:08:43;15.85;;;6.72;;
64500;SDS011;50874;24.150;-110.320;2022-08-19T12:11:11;13.63;;;6.57;;
64500;SDS011;50874;24.150;-110.320;2022-08-19T12:13:39;16.52;;;6.22;;
64500;SDS011;50874;24.150;-110.320;2022-08-19T12:16:13;16.27;;;6.47;;
64500;SDS011;50874;24.150;-110.320;2022-08-19T12:18:42;17.33;;;6.97;;
64500;SDS011;50874;24.150;-110.320;2022-08-19T12:21:11;18.13;;;6.10;;
64500;SDS011;50874;24.150;-110.320;2022-08-19T12:23:39;15.18;;;5.75;;
64500;SDS011;50874;24.150;-110.320;2022-08-19T12:26:08;16.60;;;6.82;;
64500;SDS011;50874;24.150;-110.320;2022-08-19T12:28:35;19.60;;;5.93;;
64500;SDS011;50874;24.150;-110.320;2022-08-19T12:31:02;17.98;;;6.65;;
64500;SDS011;50874;24.150;-110.320;2022-08-19T12:33:29;16.27;;;8.02;;
64500;SDS011;50874;24.150;-110.320;2022-08-19T12:36:00;15.75;;;6.70;;
64500;SDS011;50874;24.150;-110.320;2022-08-19T12:38:30;13.77;;;5.80;;
64500;SDS011;50874;24.150;-110.320;2022-08-19T12:40:59;15.63;;;6.13;;
64500;SDS011;50874;24.150;-110.320;2022-08-19T12:43:26;14.73;;;6.25;;
64500;SDS011;50874;24.150;-110.320;2022-08-19T12:45:52;12.10;;;6.07;;
64500;SDS011;50874;24.150;-110.320;2022-08-19T12:48:19;19.70;;;6.93;;
64500;SDS011;50874;24.150;-110.320;2022-08-19T12:50:45;12.82;;;5.68;;
64500;SDS011;50874;24.150;-110.320;2022-08-19T12:53:12;15.32;;;6.68;;
64500;SDS011;50874;24.150;-110.320;2022-08-19T12:55:39;17.60;;;6.60;;
64500;SDS011;50874;24.150;-110.320;2022-08-19T12:58:07;17.95;;;6.63;;
64500;SDS011;50874;24.150;-110.320;2022-08-19T13:00:34;20.08;;;6.50;;
64500;SDS011;50874;24.150;-110.320;2022-08-19T13:03:01;12.43;;;5.95;;
64500;SDS011;50874;24.150;-110.320;2022-08-19T13:05:29;19.10;;;6.97;;
64500;SDS011;50874;24.150;-110.320;2022-08-19T13:07:58;18.80;;;6.40;;
64500;SDS011;50874;24.150;-110.320;2022-08-19T13:10:28;17.20;;;6.03;;
64500;SDS011;50874;24.150;-110.320;2022-08-19T13:13:04;18.83;;;6.45;;
64500;SDS011;50874;24.150;-110.320;2022-08-19T13:15:37;18.75;;;6.82;;
64500;SDS011;50874;24.150;-110.320;2022-08-19T13:18:06;15.90;;;5.88;;
64500;SDS011;50874;24.150;-110.320;2022-08-19T13:20:34;11.45;;;5.80;;
64500;SDS011;50874;24.150;-110.320;2022-08-19T13:23:02;15.70;;;6.25;;
64500;SDS011;50874;24.150;-110.320;2022-08-19T13:25:29;17.15;;;6.65;;
64500;SDS011;50874;24.150;-110.320;2022-08-19T13:27:56;15.13;;;6.20;;
64500;SDS011;50874;24.150;-110.320;2022-08-19T13:30:22;16.60;;;6.10;;
64500;SDS011;50874;24.150;-110.320;2022-08-19T13:33:08;23.35;;;6.38;;
64500;SDS011;50874;24.150;-110.320;2022-08-19T13:38:10;13.50;;;6.05;;
64500;SDS011;50874;24.150;-110.320;2022-08-19T13:40:38;11.90;;;5.28;;
64500;SDS011;50874;24.150;-110.320;2022-08-19T13:43:05;18.45;;;5.32;;
64500;SDS011;50874;24.150;-110.320;2022-08-19T13:45:33;14.05;;;5.50;;
64500;SDS011;50874;24.150;-110.320;2022-08-19T13:48:01;18.55;;;5.20;;
64500;SDS011;50874;24.150;-110.320;2022-08-19T13:50:34;18.00;;;5.22;;
64500;SDS011;50874;24.150;-110.320;2022-08-19T13:53:04;17.35;;;4.78;;
64500;SDS011;50874;24.150;-110.320;2022-08-19T13:55:30;17.40;;;5.00;;
64500;SDS011;50874;24.150;-110.320;2022-08-19T13:57:58;11.05;;;4.90;;
64500;SDS011;50874;24.150;-110.320;2022-08-19T14:00:27;12.60;;;4.50;;
64500;SDS011;50874;24.150;-110.320;2022-08-19T14:02:56;19.25;;;5.13;;
64500;SDS011;50874;24.150;-110.320;2022-08-19T14:05:24;14.48;;;4.35;;
64500;SDS011;50874;24.150;-110.320;2022-08-19T14:07:52;14.07;;;4.55;;
64500;SDS011;50874;24.150;-110.320;2022-08-19T14:10:19;14.15;;;4.50;;
64500;SDS011;50874;24.150;-110.320;2022-08-19T14:12:47;17.52;;;5.40;;
64500;SDS011;50874;24.150;-110.320;2022-08-19T14:15:13;10.60;;;3.70;;
64500;SDS011;50874;24.150;-110.320;2022-08-19T14:17:42;16.20;;;4.78;;
64500;SDS011;50874;24.150;-110.320;2022-08-19T14:20:12;10.38;;;3.88;;
64500;SDS011;50874;24.150;-110.320;2022-08-19T14:22:40;11.73;;;3.92;;
64500;SDS011;50874;24.150;-110.320;2022-08-19T14:25:08;12.80;;;4.40;;
64500;SDS011;50874;24.150;-110.320;2022-08-19T14:27:39;12.00;;;3.50;;